Time,TemperatureF,DewpointF,PressureIn,WindDirection,WindDirectionDegrees,WindSpeedMPH,WindSpeedGustMPH,Humidity,HourlyPrecipIn,Conditions,Clouds,dailyrainin,SoftwareType,DateUTC
2013-08-21 07:20:00,60.3,59.2,30.10,WSW,248,0.0,0.0,96,0.00,,,0.00,Wunderground v.1.15,2013-08-21 11:20:00,
2013-08-21 07:30:00,60.6,59.5,30.11,WSW,248,0.0,0.0,96,0.00,,,0.00,Wunderground v.1.15,2013-08-21 11:30:00,
2013-08-21 07:35:00,60.8,59.7,30.11,WSW,248,0.0,0.0,96,0.00,,,0.00,Wunderground v.1.15,2013-08-21 11:35:00,
2013-08-21 07:40:00,61.0,59.9,30.11,WSW,248,0.0,0.0,96,0.00,,,0.00,Wunderground v.1.15,2013-08-21 11:40:00,
2013-08-21 07:45:00,61.2,60.1,30.11,WSW,248,0.0,0.0,96,0.00,,,0.00,Wunderground v.1.15,2013-08-21 11:45:00,
2013-08-21 07:50:00,61.5,60.3,30.11,WSW,247,0.0,0.0,96,0.00,,,0.00,Wunderground v.1.15,2013-08-21 11:50:00,
2013-08-21 07:55:00,61.8,60.6,30.11,WSW,247,0.0,0.0,96,0.00,,,0.00,Wunderground v.1.15,2013-08-21 11:55:00,
2013-08-21 08:00:00,62.1,60.9,30.11,SSE,158,0.0,1.0,96,0.00,,,0.00,Wunderground v.1.15,2013-08-21 12:00:00,
2013-08-21 08:10:00,62.9,61.7,30.12,SSE,157,1.0,1.0,96,0.00,,,0.00,Wunderground v.1.15,2013-08-21 12:10:00,
2013-08-21 08:15:00,63.4,62.2,30.12,SSE,158,1.0,2.0,96,0.00,,,0.00,Wunderground v.1.15,2013-08-21 12:15:00,
2013-08-21 08:20:00,63.9,62.4,30.11,SSE,158,0.0,2.0,95,0.00,,,0.00,Wunderground v.1.15,2013-08-21 12:20:00,
2013-08-21 08:25:00,64.4,62.9,30.11,SSE,158,0.0,2.0,95,0.00,,,0.00,Wunderground v.1.15,2013-08-21 12:25:00,
2013-08-21 08:30:00,64.9,63.1,30.11,SSE,159,0.0,2.0,94,0.00,,,0.00,Wunderground v.1.15,2013-08-21 12:30:00,
2013-08-21 08:35:00,65.4,63.3,30.11,SSE,159,0.0,2.0,93,0.00,,,0.00,Wunderground v.1.15,2013-08-21 12:35:00,
2013-08-21 08:40:00,66.1,63.7,30.11,SSE,159,0.0,2.0,92,0.00,,,0.00,Wunderground v.1.15,2013-08-21 12:40:00,
2013-08-21 08:50:00,67.0,63.6,30.11,SSE,156,0.0,2.0,89,0.00,,,0.00,Wunderground v.1.15,2013-08-21 12:50:00,
2013-08-21 08:55:00,67.2,63.2,30.12,SSE,159,0.0,2.0,87,0.00,,,0.00,Wunderground v.1.15,2013-08-21 12:55:00,
2013-08-21 09:00:00,67.7,63.4,30.12,SSE,158,0.0,2.0,86,0.00,,,0.00,Wunderground v.1.15,2013-08-21 13:00:00,
2013-08-21 09:05:00,68.5,64.1,30.12,SSE,158,0.0,2.0,86,0.00,,,0.00,Wunderground v.1.15,2013-08-21 13:05:00,
2013-08-21 09:10:00,69.0,64.0,30.12,SSE,158,1.0,1.0,84,0.00,,,0.00,Wunderground v.1.15,2013-08-21 13:10:00,
2013-08-21 09:15:00,69.3,63.6,30.12,SSE,159,1.0,2.0,82,0.00,,,0.00,Wunderground v.1.15,2013-08-21 13:15:00,
2013-08-21 09:20:00,69.8,64.1,30.12,SSE,155,1.0,2.0,82,0.00,,,0.00,Wunderground v.1.15,2013-08-21 13:20:00,
2013-08-21 09:30:00,70.9,64.4,30.12,SSE,155,1.0,1.0,80,0.00,,,0.00,Wunderground v.1.15,2013-08-21 13:30:00,
2013-08-21 09:35:00,71.2,64.4,30.12,SSE,155,1.0,2.0,79,0.00,,,0.00,Wunderground v.1.15,2013-08-21 13:35:00,
2013-08-21 09:40:00,71.6,64.7,30.12,SSE,155,1.0,2.0,79,0.00,,,0.00,Wunderground v.1.15,2013-08-21 13:40:00,
2013-08-21 09:45:00,71.4,63.8,30.12,SSE,165,0.0,2.0,77,0.00,,,0.00,Wunderground v.1.15,2013-08-21 13:45:00,
2013-08-21 09:50:00,71.8,64.6,30.12,SSE,165,0.0,2.0,78,0.00,,,0.00,Wunderground v.1.15,2013-08-21 13:50:00,
2013-08-21 09:55:00,72.5,65.2,30.12,SSE,159,1.0,2.0,78,0.00,,,0.00,Wunderground v.1.15,2013-08-21 13:55:00,
2013-08-21 10:00:00,73.3,65.7,30.11,SSE,160,1.0,1.0,77,0.00,,,0.00,Wunderground v.1.15,2013-08-21 14:00:00,
2013-08-21 10:10:00,74.2,66.1,30.11,SSE,160,1.0,1.0,76,0.00,,,0.00,Wunderground v.1.15,2013-08-21 14:10:00,
2013-08-21 10:15:00,74.4,66.0,30.11,SSE,161,1.0,2.0,75,0.00,,,0.00,Wunderground v.1.15,2013-08-21 14:15:00,
2013-08-21 10:20:00,74.8,66.3,30.12,SSE,161,0.0,2.0,75,0.00,,,0.00,Wunderground v.1.15,2013-08-21 14:20:00,
2013-08-21 10:25:00,75.4,66.9,30.12,SSE,162,1.0,2.0,75,0.00,,,0.00,Wunderground v.1.15,2013-08-21 14:25:00,
2013-08-21 10:30:00,75.3,66.0,30.11,SSE,162,0.0,2.0,73,0.00,,,0.00,Wunderground v.1.15,2013-08-21 14:30:00,
2013-08-21 10:35:00,75.7,66.4,30.11,SSE,162,0.0,2.0,73,0.00,,,0.00,Wunderground v.1.15,2013-08-21 14:35:00,
2013-08-21 10:45:00,76.9,67.2,30.11,SSE,162,1.0,2.0,72,0.00,,,0.00,Wunderground v.1.15,2013-08-21 14:45:00,
2013-08-21 10:55:00,77.2,67.1,30.11,SSE,160,2.0,4.0,71,0.00,,,0.00,Wunderground v.1.15,2013-08-21 14:55:00,
2013-08-21 11:00:00,77.6,67.9,30.11,SSE,160,1.0,1.0,72,0.00,,,0.00,Wunderground v.1.15,2013-08-21 15:00:00,
2013-08-21 11:05:00,78.1,67.5,30.11,SSE,152,1.0,2.0,70,0.00,,,0.00,Wunderground v.1.15,2013-08-21 15:05:00,
2013-08-21 11:10:00,78.4,68.6,30.11,SSE,152,1.0,2.0,72,0.00,,,0.00,Wunderground v.1.15,2013-08-21 15:10:00,
2013-08-21 11:15:00,78.9,68.7,30.11,SSE,152,1.0,2.0,71,0.00,,,0.00,Wunderground v.1.15,2013-08-21 15:15:00,
2013-08-21 11:20:00,79.4,68.8,30.11,SSE,152,0.0,2.0,70,0.00,,,0.00,Wunderground v.1.15,2013-08-21 15:20:00,
2013-08-21 11:30:00,80.3,69.2,30.11,SSE,155,0.0,2.0,69,0.00,,,0.00,Wunderground v.1.15,2013-08-21 15:30:00,
2013-08-21 11:40:00,81.3,70.2,30.11,SSE,155,0.0,2.0,69,0.00,,,0.00,Wunderground v.1.15,2013-08-21 15:40:00,
2013-08-21 11:45:00,81.6,66.8,30.11,South,169,1.0,2.0,61,0.00,,,0.00,Wunderground v.1.15,2013-08-21 15:45:00,
2013-08-21 11:50:00,81.9,68.1,30.10,SSE,163,1.0,1.0,63,0.00,,,0.00,Wunderground v.1.15,2013-08-21 15:50:00,
2013-08-21 12:00:00,82.5,68.2,30.10,South,170,0.0,2.0,62,0.00,,,0.00,Wunderground v.1.15,2013-08-21 16:00:00,
2013-08-21 12:05:00,82.5,67.7,30.10,South,170,0.0,2.0,61,0.00,,,0.00,Wunderground v.1.15,2013-08-21 16:05:00,
2013-08-21 12:15:00,82.4,66.6,30.10,South,171,0.0,2.0,59,0.00,,,0.00,Wunderground v.1.15,2013-08-21 16:15:00,
2013-08-21 12:20:00,82.6,68.7,30.10,WNW,284,0.0,3.0,63,0.00,,,0.00,Wunderground v.1.15,2013-08-21 16:20:00,
2013-08-21 12:25:00,83.0,68.2,30.10,West,269,1.0,3.0,61,0.00,,,0.00,Wunderground v.1.15,2013-08-21 16:25:00,
2013-08-21 12:30:00,83.3,67.5,30.10,West,261,1.0,1.0,59,0.00,,,0.00,Wunderground v.1.15,2013-08-21 16:30:00,
2013-08-21 12:35:00,83.2,67.9,30.10,WSW,255,1.0,2.0,60,0.00,,,0.00,Wunderground v.1.15,2013-08-21 16:35:00,
2013-08-21 12:40:00,83.2,67.4,30.10,WNW,283,1.0,2.0,59,0.00,,,0.00,Wunderground v.1.15,2013-08-21 16:40:00,
2013-08-21 12:45:00,83.4,67.1,30.09,WNW,286,1.0,2.0,58,0.00,,,0.00,Wunderground v.1.15,2013-08-21 16:45:00,
2013-08-21 12:55:00,83.7,67.4,30.09,WNW,303,1.0,6.0,58,0.00,,,0.00,Wunderground v.1.15,2013-08-21 16:55:00,
2013-08-21 13:00:00,83.6,67.3,30.09,NW,309,2.0,2.0,58,0.00,,,0.00,Wunderground v.1.15,2013-08-21 17:00:00,
2013-08-21 13:05:00,83.5,67.2,30.10,WNW,294,2.0,4.0,58,0.00,,,0.00,Wunderground v.1.15,2013-08-21 17:05:00,
2013-08-21 13:10:00,83.6,67.8,30.09,West,269,1.0,1.0,59,0.00,,,0.00,Wunderground v.1.15,2013-08-21 17:10:00,
2013-08-21 13:15:00,83.8,67.4,30.09,West,267,1.0,2.0,58,0.00,,,0.00,Wunderground v.1.15,2013-08-21 17:15:00,
2013-08-21 13:20:00,83.5,67.2,30.09,WNW,291,1.0,1.0,58,0.00,,,0.00,Wunderground v.1.15,2013-08-21 17:20:00,
2013-08-21 13:25:00,83.0,66.7,30.09,West,271,1.0,2.0,58,0.00,,,0.00,Wunderground v.1.15,2013-08-21 17:25:00,
2013-08-21 13:35:00,83.6,66.8,30.09,West,263,1.0,5.0,57,0.00,,,0.00,Wunderground v.1.15,2013-08-21 17:35:00,
2013-08-21 13:40:00,83.7,66.8,30.08,West,270,1.0,1.0,57,0.00,,,0.00,Wunderground v.1.15,2013-08-21 17:40:00,
2013-08-21 13:45:00,84.3,68.9,30.08,SSW,205,1.0,2.0,60,0.00,,,0.00,Wunderground v.1.15,2013-08-21 17:45:00,
2013-08-21 13:50:00,84.7,68.3,30.08,West,259,1.0,1.0,58,0.00,,,0.00,Wunderground v.1.15,2013-08-21 17:50:00,
2013-08-21 13:55:00,84.9,68.0,30.08,WSW,256,0.0,3.0,57,0.00,,,0.00,Wunderground v.1.15,2013-08-21 17:55:00,
2013-08-21 14:00:00,84.7,67.8,30.08,West,263,1.0,2.0,57,0.00,,,0.00,Wunderground v.1.15,2013-08-21 18:00:00,
2013-08-21 14:05:00,84.5,68.1,30.08,WNW,287,1.0,2.0,58,0.00,,,0.00,Wunderground v.1.15,2013-08-21 18:05:00,
2013-08-21 14:15:00,84.5,67.6,30.07,West,259,2.0,4.0,57,0.00,,,0.00,Wunderground v.1.15,2013-08-21 18:15:00,
2013-08-21 14:20:00,84.5,68.1,30.07,West,269,2.0,2.0,58,0.00,,,0.00,Wunderground v.1.15,2013-08-21 18:20:00,
2013-08-21 14:25:00,84.4,68.0,30.07,West,279,1.0,2.0,58,0.00,,,0.00,Wunderground v.1.15,2013-08-21 18:25:00,
2013-08-21 14:30:00,84.1,67.2,30.07,NNW,336,1.0,1.0,57,0.00,,,0.00,Wunderground v.1.15,2013-08-21 18:30:00,
2013-08-21 14:35:00,84.0,67.6,30.06,WSW,254,1.0,2.0,58,0.00,,,0.00,Wunderground v.1.15,2013-08-21 18:35:00,
2013-08-21 14:40:00,83.8,67.4,30.06,WNW,284,1.0,1.0,58,0.00,,,0.00,Wunderground v.1.15,2013-08-21 18:40:00,
2013-08-21 14:45:00,83.4,67.1,30.06,West,275,1.0,2.0,58,0.00,,,0.00,Wunderground v.1.15,2013-08-21 18:45:00,
2013-08-21 14:50:00,84.0,67.6,30.05,WNW,286,1.0,4.0,58,0.00,,,0.00,Wunderground v.1.15,2013-08-21 18:50:00,
2013-08-21 15:00:00,85.1,67.6,30.05,SW,230,0.0,2.0,56,0.00,,,0.00,Wunderground v.1.15,2013-08-21 19:00:00,
2013-08-21 15:05:00,85.4,68.4,30.04,WSW,244,0.0,5.0,57,0.00,,,0.00,Wunderground v.1.15,2013-08-21 19:05:00,
2013-08-21 15:10:00,85.6,67.6,30.04,WNW,286,1.0,1.0,55,0.00,,,0.00,Wunderground v.1.15,2013-08-21 19:10:00,
2013-08-21 15:15:00,84.9,66.9,30.04,WSW,254,1.0,2.0,55,0.00,,,0.00,Wunderground v.1.15,2013-08-21 19:15:00,
2013-08-21 15:20:00,85.3,68.8,30.04,WSW,249,0.0,2.0,58,0.00,,,0.00,Wunderground v.1.15,2013-08-21 19:20:00,
2013-08-21 15:25:00,85.6,68.6,30.03,SW,221,0.0,2.0,57,0.00,,,0.00,Wunderground v.1.15,2013-08-21 19:25:00,
2013-08-21 15:30:00,85.8,66.1,30.03,WNW,287,1.0,1.0,52,0.00,,,0.00,Wunderground v.1.15,2013-08-21 19:30:00,
2013-08-21 15:40:00,86.1,65.3,30.03,NW,305,1.0,1.0,50,0.00,,,0.00,Wunderground v.1.15,2013-08-21 19:40:00,
2013-08-21 15:45:00,85.9,65.1,30.03,West,279,2.0,2.0,50,0.00,,,0.00,Wunderground v.1.15,2013-08-21 19:45:00,
2013-08-21 15:50:00,86.1,65.9,30.03,SW,221,1.0,1.0,51,0.00,,,0.00,Wunderground v.1.15,2013-08-21 19:50:00,
2013-08-21 15:55:00,85.9,65.1,30.03,West,263,0.0,2.0,50,0.00,,,0.00,Wunderground v.1.15,2013-08-21 19:55:00,
2013-08-21 16:05:00,86.0,65.2,30.03,West,277,1.0,6.0,50,0.00,,,0.00,Wunderground v.1.15,2013-08-21 20:05:00,
2013-08-21 16:10:00,85.9,66.2,30.03,West,263,1.0,1.0,52,0.00,,,0.00,Wunderground v.1.15,2013-08-21 20:10:00,
2013-08-21 16:20:00,85.8,65.6,30.02,SW,235,0.0,2.0,51,0.00,,,0.00,Wunderground v.1.15,2013-08-21 20:20:00,
2013-08-21 16:25:00,86.0,66.3,30.02,West,273,1.0,2.0,52,0.00,,,0.00,Wunderground v.1.15,2013-08-21 20:25:00,
2013-08-21 16:30:00,86.1,65.9,30.02,West,275,0.0,3.0,51,0.00,,,0.00,Wunderground v.1.15,2013-08-21 20:30:00,
2013-08-21 16:35:00,86.0,65.8,30.02,West,273,1.0,4.0,51,0.00,,,0.00,Wunderground v.1.15,2013-08-21 20:35:00,
2013-08-21 16:40:00,86.0,65.2,30.01,WNW,283,1.0,1.0,50,0.00,,,0.00,Wunderground v.1.15,2013-08-21 20:40:00,
2013-08-21 16:45:00,86.1,65.3,30.01,WSW,256,1.0,2.0,50,0.00,,,0.00,Wunderground v.1.15,2013-08-21 20:45:00,
2013-08-21 16:55:00,85.6,65.4,30.01,West,271,0.0,2.0,51,0.00,,,0.00,Wunderground v.1.15,2013-08-21 20:55:00,
2013-08-21 17:00:00,85.9,66.2,30.01,West,271,0.0,2.0,52,0.00,,,0.00,Wunderground v.1.15,2013-08-21 21:00:00,
2013-08-21 17:05:00,86.1,65.9,30.01,West,269,0.0,2.0,51,0.00,,,0.00,Wunderground v.1.15,2013-08-21 21:05:00,
2013-08-21 17:10:00,86.1,65.3,30.01,West,273,1.0,1.0,50,0.00,,,0.00,Wunderground v.1.15,2013-08-21 21:10:00,
2013-08-21 17:15:00,85.9,65.7,30.01,WNW,284,1.0,2.0,51,0.00,,,0.00,Wunderground v.1.15,2013-08-21 21:15:00,
2013-08-21 17:20:00,86.1,65.9,30.01,WNW,282,1.0,5.0,51,0.00,,,0.00,Wunderground v.1.15,2013-08-21 21:20:00,
2013-08-21 17:25:00,85.8,65.0,30.01,West,277,1.0,5.0,50,0.00,,,0.00,Wunderground v.1.15,2013-08-21 21:25:00,
2013-08-21 17:30:00,85.5,64.2,30.00,West,277,1.0,2.0,49,0.00,,,0.00,Wunderground v.1.15,2013-08-21 21:30:00,
2013-08-21 17:40:00,85.1,65.5,30.00,West,271,0.0,2.0,52,0.00,,,0.00,Wunderground v.1.15,2013-08-21 21:40:00,
2013-08-21 17:45:00,84.9,65.9,30.00,West,271,0.0,2.0,53,0.00,,,0.00,Wunderground v.1.15,2013-08-21 21:45:00,
2013-08-21 17:50:00,84.8,65.2,30.00,West,278,0.0,2.0,52,0.00,,,0.00,Wunderground v.1.15,2013-08-21 21:50:00,
2013-08-21 17:55:00,84.6,65.6,30.00,West,278,0.0,2.0,53,0.00,,,0.00,Wunderground v.1.15,2013-08-21 21:55:00,
2013-08-21 18:00:00,84.6,65.6,30.00,West,278,0.0,2.0,53,0.00,,,0.00,Wunderground v.1.15,2013-08-21 22:00:00,
2013-08-21 18:05:00,84.6,65.0,29.99,West,277,0.0,2.0,52,0.00,,,0.00,Wunderground v.1.15,2013-08-21 22:05:00,
2013-08-21 18:15:00,84.6,65.0,29.99,West,275,0.0,2.0,52,0.00,,,0.00,Wunderground v.1.15,2013-08-21 22:15:00,
2013-08-21 18:20:00,84.5,64.4,29.99,West,272,0.0,2.0,51,0.00,,,0.00,Wunderground v.1.15,2013-08-21 22:20:00,
2013-08-21 18:25:00,84.4,64.9,29.99,West,272,0.0,2.0,52,0.00,,,0.00,Wunderground v.1.15,2013-08-21 22:25:00,
2013-08-21 18:30:00,84.1,65.1,29.99,West,272,0.0,2.0,53,0.00,,,0.00,Wunderground v.1.15,2013-08-21 22:30:00,
2013-08-21 18:35:00,83.8,65.4,29.99,West,272,0.0,2.0,54,0.00,,,0.00,Wunderground v.1.15,2013-08-21 22:35:00,
2013-08-21 18:40:00,83.8,65.4,29.98,West,272,0.0,2.0,54,0.00,,,0.00,Wunderground v.1.15,2013-08-21 22:40:00,
2013-08-21 18:45:00,83.8,66.4,29.98,West,272,0.0,2.0,56,0.00,,,0.00,Wunderground v.1.15,2013-08-21 22:45:00,
2013-08-21 18:55:00,83.2,65.4,29.98,West,272,0.0,2.0,55,0.00,,,0.00,Wunderground v.1.15,2013-08-21 22:55:00,
2013-08-21 19:00:00,82.7,65.4,29.98,West,272,0.0,2.0,56,0.00,,,0.00,Wunderground v.1.15,2013-08-21 23:00:00,
2013-08-21 19:05:00,82.1,65.4,29.98,West,272,0.0,2.0,57,0.00,,,0.00,Wunderground v.1.15,2013-08-21 23:05:00,
2013-08-21 19:10:00,81.7,65.0,29.98,West,272,0.0,2.0,57,0.00,,,0.00,Wunderground v.1.15,2013-08-21 23:10:00,
2013-08-21 19:15:00,81.1,65.4,29.98,West,272,0.0,2.0,59,0.00,,,0.00,Wunderground v.1.15,2013-08-21 23:15:00,
2013-08-21 19:20:00,80.7,65.5,29.98,West,272,0.0,2.0,60,0.00,,,0.00,Wunderground v.1.15,2013-08-21 23:20:00,
2013-08-21 19:25:00,80.2,65.1,29.98,West,272,0.0,2.0,60,0.00,,,0.00,Wunderground v.1.15,2013-08-21 23:25:00,
2013-08-21 19:30:00,79.7,65.1,29.98,West,272,0.0,2.0,61,0.00,,,0.00,Wunderground v.1.15,2013-08-21 23:30:00,
2013-08-21 19:40:00,78.4,65.2,29.98,West,272,0.0,2.0,64,0.00,,,0.00,Wunderground v.1.15,2013-08-21 23:40:00,
2013-08-21 19:45:00,77.7,65.4,29.98,West,272,0.0,2.0,66,0.00,,,0.00,Wunderground v.1.15,2013-08-21 23:45:00,
2013-08-21 19:50:00,77.1,65.3,29.98,West,272,0.0,2.0,67,0.00,,,0.00,Wunderground v.1.15,2013-08-21 23:50:00,
2013-08-21 19:55:00,76.5,65.1,29.98,West,272,0.0,2.0,68,0.00,,,0.00,Wunderground v.1.15,2013-08-21 23:55:00,
2013-08-21 20:00:00,75.9,65.0,29.98,West,272,0.0,2.0,69,0.00,,,0.00,Wunderground v.1.15,2013-08-22 00:00:00,
2013-08-21 20:05:00,75.3,65.2,29.97,West,272,0.0,2.0,71,0.00,,,0.00,Wunderground v.1.15,2013-08-22 00:05:00,
2013-08-21 20:10:00,74.8,65.2,29.97,West,272,0.0,2.0,72,0.00,,,0.00,Wunderground v.1.15,2013-08-22 00:10:00,
2013-08-21 20:20:00,73.7,64.5,29.97,West,272,0.0,2.0,73,0.00,,,0.00,Wunderground v.1.15,2013-08-22 00:20:00,
2013-08-21 20:25:00,73.2,64.4,29.97,West,272,0.0,2.0,74,0.00,,,0.00,Wunderground v.1.15,2013-08-22 00:25:00,
2013-08-21 20:30:00,72.9,64.1,29.97,West,272,0.0,2.0,74,0.00,,,0.00,Wunderground v.1.15,2013-08-22 00:30:00,
2013-08-21 20:35:00,72.6,64.2,29.97,West,272,0.0,2.0,75,0.00,,,0.00,Wunderground v.1.15,2013-08-22 00:35:00,
2013-08-21 20:40:00,72.4,64.0,29.97,West,272,0.0,2.0,75,0.00,,,0.00,Wunderground v.1.15,2013-08-22 00:40:00,
2013-08-21 20:45:00,72.0,64.0,29.97,West,272,0.0,2.0,76,0.00,,,0.00,Wunderground v.1.15,2013-08-22 00:45:00,
2013-08-21 20:50:00,71.7,64.1,29.98,West,272,0.0,2.0,77,0.00,,,0.00,Wunderground v.1.15,2013-08-22 00:50:00,
2013-08-21 21:00:00,71.1,63.9,29.98,West,272,0.0,2.0,78,0.00,,,0.00,Wunderground v.1.15,2013-08-22 01:00:00,
2013-08-21 21:05:00,70.8,64.0,29.98,West,272,0.0,2.0,79,0.00,,,0.00,Wunderground v.1.15,2013-08-22 01:05:00,
2013-08-21 21:10:00,70.5,64.0,29.98,West,272,0.0,2.0,80,0.00,,,0.00,Wunderground v.1.15,2013-08-22 01:10:00,
2013-08-21 21:15:00,70.2,63.7,29.98,West,272,0.0,2.0,80,0.00,,,0.00,Wunderground v.1.15,2013-08-22 01:15:00,
2013-08-21 21:20:00,70.0,63.9,29.98,West,272,0.0,2.0,81,0.00,,,0.00,Wunderground v.1.15,2013-08-22 01:20:00,
2013-08-21 21:25:00,69.8,63.7,29.98,West,272,0.0,2.0,81,0.00,,,0.00,Wunderground v.1.15,2013-08-22 01:25:00,
2013-08-21 21:30:00,69.7,64.0,29.98,West,272,0.0,2.0,82,0.00,,,0.00,Wunderground v.1.15,2013-08-22 01:30:00,
2013-08-21 21:40:00,69.4,63.7,29.97,West,272,0.0,2.0,82,0.00,,,0.00,Wunderground v.1.15,2013-08-22 01:40:00,
2013-08-21 21:45:00,69.3,63.6,29.98,West,272,0.0,2.0,82,0.00,,,0.00,Wunderground v.1.15,2013-08-22 01:45:00,
2013-08-21 21:50:00,69.2,63.5,29.98,West,272,0.0,2.0,82,0.00,,,0.00,Wunderground v.1.15,2013-08-22 01:50:00,
2013-08-21 21:55:00,69.1,63.4,29.98,West,272,0.0,2.0,82,0.00,,,0.00,Wunderground v.1.15,2013-08-22 01:55:00,
2013-08-21 22:00:00,68.9,63.2,29.97,West,272,0.0,2.0,82,0.00,,,0.00,Wunderground v.1.15,2013-08-22 02:00:00,
2013-08-21 22:05:00,68.8,63.4,29.97,West,272,0.0,2.0,83,0.00,,,0.00,Wunderground v.1.15,2013-08-22 02:05:00,
2013-08-21 22:10:00,68.6,63.2,29.98,West,272,0.0,2.0,83,0.00,,,0.00,Wunderground v.1.15,2013-08-22 02:10:00,
2013-08-21 22:20:00,68.3,62.9,29.98,West,272,0.0,2.0,83,0.00,,,0.00,Wunderground v.1.15,2013-08-22 02:20:00,
2013-08-21 22:30:00,68.0,62.6,29.98,West,272,0.0,2.0,83,0.00,,,0.00,Wunderground v.1.15,2013-08-22 02:30:00,
2013-08-21 22:35:00,67.9,62.5,29.98,West,272,0.0,2.0,83,0.00,,,0.00,Wunderground v.1.15,2013-08-22 02:35:00,
2013-08-21 22:40:00,67.8,62.8,29.98,West,272,0.0,2.0,84,0.00,,,0.00,Wunderground v.1.15,2013-08-22 02:40:00,
2013-08-21 22:45:00,67.6,62.6,29.98,West,272,0.0,2.0,84,0.00,,,0.00,Wunderground v.1.15,2013-08-22 02:45:00,
2013-08-21 22:50:00,67.4,62.4,29.98,West,272,0.0,2.0,84,0.00,,,0.00,Wunderground v.1.15,2013-08-22 02:50:00,
2013-08-21 23:00:00,67.0,62.0,29.98,West,272,0.0,2.0,84,0.00,,,0.00,Wunderground v.1.15,2013-08-22 03:00:00,
2013-08-21 23:10:00,66.7,61.7,29.98,West,272,0.0,2.0,84,0.00,,,0.00,Wunderground v.1.15,2013-08-22 03:10:00,
2013-08-21 23:15:00,66.6,61.9,29.98,West,272,0.0,2.0,85,0.00,,,0.00,Wunderground v.1.15,2013-08-22 03:15:00,
2013-08-21 23:20:00,66.5,61.8,29.98,West,272,0.0,2.0,85,0.00,,,0.00,Wunderground v.1.15,2013-08-22 03:20:00,
2013-08-21 23:30:00,66.3,61.7,29.98,West,272,0.0,2.0,85,0.00,,,0.00,Wunderground v.1.15,2013-08-22 03:30:00,
2013-08-21 23:35:00,66.1,61.5,29.98,West,272,0.0,2.0,85,0.00,,,0.00,Wunderground v.1.15,2013-08-22 03:35:00,
2013-08-21 23:40:00,65.9,61.3,29.98,West,272,0.0,2.0,85,0.00,,,0.00,Wunderground v.1.15,2013-08-22 03:40:00,
2013-08-21 23:45:00,65.8,61.5,29.98,West,272,0.0,2.0,86,0.00,,,0.00,Wunderground v.1.15,2013-08-22 03:45:00,